EmailTwitter


Surface observations / Quebec / CYUL (71627)

Regions: Quebec | Canada | USA | Europe | France | UK | Elsewhere
Station
Display
Info & Location for CYUL (71627) | Help decoding METAR

Weather Conditions observed on 2018/08/16 at 00:00 UTC at MONTREAL INTL A, QB (CYUL)

Sky conditions: overcast.

Temperature: 25.0 Celsius.

Dewpoint: 16.0 Celsius.

Relative Humidity: 57%

Humidex: 30.

Winds: Northwest at 13 km/h or 7 knots.

Mean Sea level Pressure: 101.17 kilopascals.

Altimeter Setting (QNH): 101.15 kilopascals or 29.87 inches of mercury.

Horizontal visibility: 15.00 statute miles or 24.00 kilometers.

Height of the Ceiling: 2134 metres ( 7000 feet ).

Coded METAR:

CYUL 160000Z 30007KT 15SM FEW045 BKN070 OVC100 25/16 A2987 RMK SC1AC7AC1 SC TR

SLP117 DENSITY ALT 1400FT=